Time;durP1;ratioP1;P1;durP2;ratioP2;P2;SDS_P1;SDS_P2;PMS_P1;PMS_P2;Temp;Humidity;BMP_temperature;BMP_pressure;BME280_temperature;BME280_humidity;BME280_pressure;Samples;Min_cycle;Max_cycle;Signal;HPM_P1;HPM_P2
2022/05/30 00:01:09;;;;;;;0.70;0.60;;;;;;;12.64;66.85;98991.81;5036627;28;20048;-69
2022/05/30 00:03:38;;;;;;;0.45;0.45;;;;;;;12.70;67.12;98987.41;5036959;28;20049;-69
2022/05/30 00:06:09;;;;;;;0.57;0.57;;;;;;;12.70;67.46;98994.22;5036673;28;20064;-69
2022/05/30 00:08:39;;;;;;;0.70;0.70;;;;;;;12.65;67.50;98978.13;5036757;28;20041;-70
2022/05/30 00:11:10;;;;;;;0.90;0.70;;;;;;;12.68;67.63;98989.16;5036929;28;20045;-70
2022/05/30 00:13:40;;;;;;;3.75;0.77;;;;;;;12.54;68.11;98990.28;5036740;28;20115;-70
2022/05/30 00:16:16;;;;;;;0.70;0.63;;;;;;;12.58;68.52;98997.03;5036642;28;20088;-69
2022/05/30 00:18:49;;;;;;;2.17;1.58;;;;;;;12.57;68.63;98990.25;5036869;28;20056;-69
2022/05/30 00:21:19;;;;;;;0.55;0.55;;;;;;;12.55;68.71;98991.97;5036491;28;20549;-70
2022/05/30 00:23:53;;;;;;;0.40;0.40;;;;;;;12.51;68.95;98983.53;5036555;28;20050;-69
2022/05/30 00:26:25;;;;;;;0.55;0.55;;;;;;;12.46;69.02;98992.16;5036437;28;20095;-69
2022/05/30 00:28:54;;;;;;;1.95;1.70;;;;;;;12.41;69.33;98984.56;5036273;28;20045;-69
2022/05/30 00:31:25;;;;;;;0.43;0.43;;;;;;;12.39;69.70;98993.13;5036341;28;20514;-70
2022/05/30 00:33:54;;;;;;;0.68;0.68;;;;;;;12.36;69.35;98993.19;5017583;28;20073;-70
2022/05/30 00:36:23;;;;;;;1.55;0.57;;;;;;;12.37;69.08;98976.97;5018346;28;20045;-70
2022/05/30 00:38:52;;;;;;;0.50;0.50;;;;;;;12.40;68.86;98976.94;5036213;28;20407;-69
2022/05/30 00:41:34;;;;;;;0.52;0.52;;;;;;;12.39;68.86;98975.22;5035745;28;20057;-70
2022/05/30 00:44:03;;;;;;;0.40;0.40;;;;;;;12.46;68.24;98967.41;5036167;28;20049;-70
2022/05/30 00:46:34;;;;;;;0.30;0.30;;;;;;;12.59;67.86;98978.25;5035808;28;20041;-69
2022/05/30 00:49:09;;;;;;;0.57;0.57;;;;;;;12.68;67.21;98973.78;5036017;28;20069;-70
2022/05/30 00:51:43;;;;;;;0.73;0.70;;;;;;;12.76;66.83;98971.06;5036043;28;20499;-70
2022/05/30 00:54:16;;;;;;;0.60;0.60;;;;;;;12.84;66.70;98969.16;5018043;28;20042;-70
2022/05/30 00:56:50;;;;;;;0.50;0.50;;;;;;;12.93;66.29;98974.13;5035638;28;20055;-69
2022/05/30 00:59:20;;;;;;;0.43;0.43;;;;;;;12.95;66.32;98967.25;5035844;28;20103;-70
2022/05/30 01:01:51;;;;;;;0.60;0.60;;;;;;;12.94;66.16;98964.69;5017846;28;20388;-69
2022/05/30 01:07:00;;;;;;;0.40;0.40;;;;;;;12.63;66.54;98964.50;5017782;28;20499;-70
2022/05/30 01:09:34;;;;;;;0.68;0.68;;;;;;;12.41;67.51;98958.97;5035549;28;20080;-69
2022/05/30 01:12:05;;;;;;;1.15;0.60;;;;;;;12.19;68.47;98962.81;5018052;28;20048;-69
2022/05/30 01:14:40;;;;;;;0.70;0.70;;;;;;;11.95;69.47;98959.00;5017637;28;20065;-67
2022/05/30 01:17:16;;;;;;;0.63;0.63;;;;;;;11.72;70.23;98965.38;5017740;28;20479;-68
2022/05/30 01:19:55;;;;;;;0.50;0.50;;;;;;;11.58;71.00;98952.81;5017590;28;20045;-70
2022/05/30 01:22:49;;;;;;;0.50;0.50;;;;;;;11.41;72.01;98952.22;5017570;28;20057;-69
2022/05/30 01:25:40;;;;;;;0.63;0.63;;;;;;;11.35;72.62;98949.75;5016504;28;20111;-70
2022/05/30 01:28:53;;;;;;;0.50;0.50;;;;;;;11.37;72.67;98948.03;5035002;28;20056;-69
2022/05/30 01:31:26;;;;;;;0.43;0.43;;;;;;;11.37;72.97;98943.75;5035286;28;20045;-70
2022/05/30 01:33:55;;;;;;;0.82;0.82;;;;;;;11.38;73.22;98929.28;5000760;28;20053;-70
2022/05/30 01:36:26;;;;;;;0.30;0.30;;;;;;;11.44;73.19;98947.91;5017196;28;20057;-69
2022/05/30 01:38:55;;;;;;;0.50;0.50;;;;;;;11.48;72.93;98935.94;5034729;28;20108;-70
2022/05/30 01:42:08;;;;;;;0.50;0.50;;;;;;;11.45;73.00;98941.06;5034466;28;20125;-69
2022/05/30 01:44:38;;;;;;;2.22;1.02;;;;;;;11.43;73.36;98945.38;5030240;28;20045;-69
2022/05/30 01:47:07;;;;;;;0.70;0.70;;;;;;;11.39;72.91;98941.19;5034732;28;20049;-70
2022/05/30 01:49:37;;;;;;;0.40;0.40;;;;;;;11.41;73.02;98939.44;5016969;28;20407;-69
2022/05/30 01:52:11;;;;;;;0.80;0.80;;;;;;;11.40;73.17;98942.88;5016943;28;20049;-70
2022/05/30 01:54:44;;;;;;;0.52;0.52;;;;;;;11.43;72.81;98942.81;5017171;28;20068;-69
2022/05/30 01:57:24;;;;;;;1.00;1.00;;;;;;;11.43;72.62;98945.38;5034492;28;20060;-69
2022/05/30 02:00:18;;;;;;;0.55;0.55;;;;;;;11.40;72.73;98937.75;5034746;28;20073;-69
2022/05/30 02:02:54;;;;;;;1.65;0.82;;;;;;;11.33;72.75;98951.50;5016756;28;20049;-70
2022/05/30 02:05:24;;;;;;;1.38;0.88;;;;;;;11.33;72.63;98941.28;5016943;28;20041;-69
2022/05/30 02:07:53;;;;;;;0.50;0.50;;;;;;;11.32;73.19;98937.06;5034260;28;20056;-69
2022/05/30 02:10:38;;;;;;;0.40;0.40;;;;;;;11.30;72.89;98946.47;5034445;28;20050;-70
2022/05/30 02:13:09;;;;;;;0.57;0.57;;;;;;;11.25;73.28;98943.13;5034191;28;20132;-70
2022/05/30 02:18:33;;;;;;;0.70;0.70;;;;;;;11.09;73.53;98941.66;5016506;28;20041;-70
2022/05/30 02:21:05;;;;;;;0.60;0.60;;;;;;;11.08;73.51;98945.09;5034322;28;20383;-70
2022/05/30 02:23:37;;;;;;;0.40;0.40;;;;;;;11.03;73.89;98941.75;5034020;28;20952;-70
2022/05/30 02:26:06;;;;;;;0.50;0.50;;;;;;;10.95;73.55;98941.00;5033767;28;20068;-69
2022/05/30 02:28:35;;;;;;;0.50;0.50;;;;;;;10.89;73.80;98948.75;5033898;28;20052;-70
2022/05/30 02:31:06;;;;;;;0.50;0.50;;;;;;;10.83;73.82;98943.72;5016119;28;20345;-70
2022/05/30 02:38:56;;;;;;;0.57;0.57;;;;;;;10.69;74.37;98960.09;5016209;28;20045;-70
2022/05/30 02:41:55;;;;;;;0.43;0.43;;;;;;;10.65;74.13;98963.50;4794334;28;20059;-69
2022/05/30 02:44:34;;;;;;;0.50;0.50;;;;;;;10.58;74.17;98971.28;5016718;28;20065;-69
2022/05/30 02:47:06;;;;;;;0.40;0.40;;;;;;;10.59;74.41;98971.25;5016037;28;20099;-70
2022/05/30 02:49:38;;;;;;;0.50;0.50;;;;;;;10.50;74.27;98978.19;5033554;28;20107;-70
2022/05/30 02:52:13;;;;;;;0.40;0.40;;;;;;;10.43;74.49;98979.97;5033585;28;20168;-72
2022/05/30 02:54:42;;;;;;;0.60;0.60;;;;;;;10.39;74.62;98980.84;5015989;28;20137;-70
2022/05/30 02:57:31;;;;;;;0.40;0.40;;;;;;;10.46;74.67;98979.91;5016040;28;20137;-70
2022/05/30 03:00:01;;;;;;;0.98;0.95;;;;;;;10.48;74.87;98978.22;5015930;28;20467;-70
2022/05/30 03:02:39;;;;;;;0.57;0.57;;;;;;;10.49;74.56;98972.22;5033723;28;20449;-69
2022/05/30 03:05:11;;;;;;;0.57;0.57;;;;;;;10.25;74.17;98957.22;5033452;28;20060;-70
2022/05/30 03:07:40;;;;;;;0.43;0.43;;;;;;;10.23;74.95;98981.88;5033503;28;20469;-69
2022/05/30 03:10:32;;;;;;;0.43;0.43;;;;;;;10.08;75.11;98972.66;5033659;28;20124;-69
2022/05/30 03:13:03;;;;;;;0.93;0.93;;;;;;;10.17;75.09;98987.06;5033340;28;20081;-70
2022/05/30 03:15:34;;;;;;;0.75;0.75;;;;;;;10.11;74.71;98976.88;5015818;28;20049;-69
2022/05/30 03:18:06;;;;;;;0.40;0.40;;;;;;;10.20;75.43;98984.47;5015652;28;20045;-69
2022/05/30 03:20:38;;;;;;;0.40;0.40;;;;;;;10.28;75.26;98989.47;5033320;28;20111;-69
2022/05/30 03:23:08;;;;;;;0.40;0.40;;;;;;;10.33;75.32;98993.69;5015625;28;20487;-70
2022/05/30 03:25:48;;;;;;;0.80;0.80;;;;;;;10.41;75.40;98981.69;5033282;28;20053;-71
2022/05/30 03:28:17;;;;;;;1.00;1.00;;;;;;;10.48;75.79;98972.25;5015865;28;20148;-70
2022/05/30 03:30:46;;;;;;;0.50;0.50;;;;;;;10.68;76.25;98991.56;4967514;28;20073;-70
2022/05/30 03:33:17;;;;;;;0.50;0.50;;;;;;;10.86;75.41;98989.63;5033094;28;20784;-69
2022/05/30 03:35:46;;;;;;;0.70;0.70;;;;;;;11.03;75.13;98995.38;5015581;28;20499;-69
2022/05/30 03:38:36;;;;;;;0.40;0.40;;;;;;;11.12;74.28;98988.44;5033187;28;20053;-70
2022/05/30 03:41:16;;;;;;;0.52;0.52;;;;;;;11.14;73.45;98986.69;5038103;28;20552;-69
2022/05/30 03:44:00;;;;;;;0.60;0.60;;;;;;;11.18;73.40;98992.63;5053249;28;20047;-70
2022/05/30 03:46:33;;;;;;;0.45;0.45;;;;;;;11.24;72.52;98987.41;5035536;28;20052;-71
2022/05/30 03:49:06;;;;;;;0.45;0.45;;;;;;;11.29;72.51;98995.84;5053282;28;20056;-71
2022/05/30 03:51:35;;;;;;;0.60;0.60;;;;;;;11.30;72.04;98997.53;5035194;28;20490;-69
2022/05/30 03:54:07;;;;;;;4.40;0.65;;;;;;;11.33;72.06;98995.78;5052852;28;20053;-69
2022/05/30 03:56:36;;;;;;;0.52;0.52;;;;;;;11.40;72.09;98999.06;5053034;28;20053;-71
2022/05/30 03:59:07;;;;;;;0.52;0.52;;;;;;;11.45;71.68;99007.50;5035163;28;20542;-70
2022/05/30 04:01:36;;;;;;;0.50;0.50;;;;;;;11.55;72.13;99006.50;5035016;28;20091;-69
2022/05/30 04:04:08;;;;;;;0.73;0.73;;;;;;;11.60;72.41;99002.19;5053657;28;20111;-71
2022/05/30 04:06:36;;;;;;;2.17;1.40;;;;;;;11.67;73.07;98992.69;5035041;28;20056;-71
2022/05/30 04:09:05;;;;;;;0.50;0.50;;;;;;;11.70;73.29;98983.31;5038165;28;20048;-69
2022/05/30 04:11:45;;;;;;;0.65;0.65;;;;;;;11.74;73.49;98990.03;5056626;28;20056;-70
2022/05/30 04:14:26;;;;;;;0.55;0.55;;;;;;;11.92;73.64;98992.31;5056686;28;20045;-71
2022/05/30 04:17:18;;;;;;;1.02;1.00;;;;;;;11.89;73.61;98989.78;5055853;28;20052;-69
2022/05/30 04:19:49;;;;;;;0.68;0.68;;;;;;;11.86;74.05;98994.97;5038514;28;20045;-70
2022/05/30 04:22:22;;;;;;;0.60;0.60;;;;;;;11.96;74.07;98993.94;5038792;28;20040;-71
2022/05/30 04:25:23;;;;;;;0.90;0.82;;;;;;;12.09;74.06;99007.34;4975533;28;20047;-71
2022/05/30 04:27:52;;;;;;;0.50;0.50;;;;;;;12.09;73.86;99008.19;5034668;28;20037;-70
2022/05/30 04:30:21;;;;;;;0.60;0.60;;;;;;;12.08;73.72;99006.50;5038143;28;20037;-71
2022/05/30 04:32:53;;;;;;;0.55;0.55;;;;;;;12.10;74.03;99004.75;5038602;28;20045;-70
2022/05/30 04:35:27;;;;;;;2.30;1.85;;;;;;;12.14;74.14;98997.03;5038527;28;20053;-71
2022/05/30 04:37:56;;;;;;;0.40;0.40;;;;;;;12.21;73.97;99008.84;5038535;28;20483;-70
2022/05/30 04:40:39;;;;;;;0.60;0.60;;;;;;;12.22;73.65;99008.81;5056010;28;20263;-69
2022/05/30 04:43:34;;;;;;;0.85;0.85;;;;;;;12.24;73.30;99013.91;5055671;28;20038;-70
2022/05/30 04:46:16;;;;;;;0.68;0.68;;;;;;;12.22;72.88;99013.06;5055726;28;20110;-70
2022/05/30 04:48:51;;;;;;;2.30;0.55;;;;;;;12.30;73.00;99014.63;5056403;28;20144;-70
2022/05/30 04:51:22;;;;;;;0.82;0.77;;;;;;;12.48;72.82;99027.06;5038071;28;20067;-71
2022/05/30 04:53:52;;;;;;;1.58;1.25;;;;;;;12.56;72.76;99016.69;5037817;28;20069;-71
2022/05/30 04:56:53;;;;;;;0.82;0.63;;;;;;;12.71;72.60;99009.56;5055617;28;20049;-69
2022/05/30 04:59:28;;;;;;;0.82;0.82;;;;;;;12.87;71.99;99015.22;5055835;28;20073;-70
2022/05/30 05:02:13;;;;;;;0.60;0.60;;;;;;;12.83;71.53;99008.47;5037656;28;20103;-70
2022/05/30 05:04:52;;;;;;;1.02;0.95;;;;;;;12.83;71.38;99011.03;5055738;28;20052;-71
2022/05/30 05:07:27;;;;;;;1.65;1.35;;;;;;;12.93;71.13;99027.06;5037637;28;20068;-71
2022/05/30 05:10:33;;;;;;;0.50;0.50;;;;;;;13.09;71.08;99031.84;5055371;28;20052;-69
2022/05/30 05:13:22;;;;;;;0.50;0.50;;;;;;;13.27;70.48;99028.88;5054815;28;20135;-71
2022/05/30 05:16:02;;;;;;;0.77;0.77;;;;;;;13.50;69.79;99032.66;5053792;28;20049;-71
2022/05/30 05:18:35;;;;;;;0.50;0.50;;;;;;;13.71;69.05;99027.03;5054741;28;20052;-71
2022/05/30 05:21:04;;;;;;;0.90;0.85;;;;;;;13.97;68.78;99019.53;5054966;28;20060;-70
2022/05/30 05:23:35;;;;;;;0.50;0.50;;;;;;;14.32;68.21;99027.22;5037290;28;20037;-70
2022/05/30 05:26:08;;;;;;;1.27;1.13;;;;;;;14.47;66.96;99031.94;5020838;28;20147;-71
2022/05/30 05:28:51;;;;;;;0.70;0.70;;;;;;;14.69;66.16;99038.19;5036762;28;20056;-71
2022/05/30 05:31:24;;;;;;;0.75;0.75;;;;;;;14.93;65.81;99040.94;5036461;28;20048;-71
2022/05/30 05:33:57;;;;;;;0.60;0.60;;;;;;;15.12;64.95;99034.38;5036649;28;20055;-71
2022/05/30 05:36:29;;;;;;;3.58;0.95;;;;;;;15.27;64.94;99031.34;5037300;28;20049;-72
2022/05/30 05:39:00;;;;;;;4.00;1.75;;;;;;;15.37;64.25;99038.75;5037297;28;20049;-72
2022/05/30 05:41:42;;;;;;;0.60;0.60;;;;;;;15.60;63.80;99040.63;5054530;28;20075;-70
2022/05/30 05:44:15;;;;;;;0.60;0.60;;;;;;;15.75;63.03;99050.47;5036967;28;20045;-71
2022/05/30 05:46:44;;;;;;;1.73;0.98;;;;;;;15.81;62.64;99050.25;5054333;28;20072;-71
2022/05/30 05:49:13;;;;;;;;;;;;;;;15.90;61.87;99044.81;5037014;28;20041;-70
2022/05/30 05:51:43;;;;;;;0.80;0.80;;;;;;;15.88;61.07;99036.28;5028375;28;19920;-72
2022/05/30 05:54:15;;;;;;;0.68;0.68;;;;;;;15.92;61.02;99037.91;5036783;28;20044;-71
2022/05/30 05:56:44;;;;;;;1.10;1.00;;;;;;;15.70;60.84;99042.03;5029265;28;20052;-72
2022/05/30 05:59:20;;;;;;;0.52;0.52;;;;;;;15.49;61.16;99060.72;5054314;28;20057;-70
2022/05/30 06:01:49;;;;;;;0.80;0.80;;;;;;;15.34;61.31;99058.56;5036701;28;20491;-71
2022/05/30 06:04:22;;;;;;;1.55;1.15;;;;;;;15.38;61.22;99067.88;5036872;28;20410;-70
2022/05/30 06:07:02;;;;;;;0.95;0.82;;;;;;;15.41;60.97;99060.06;5054454;28;20483;-72
2022/05/30 06:09:40;;;;;;;0.73;0.73;;;;;;;15.62;60.53;99059.44;5036700;28;20103;-70
2022/05/30 06:12:20;;;;;;;1.25;0.85;;;;;;;15.85;59.89;99056.16;5054352;28;20090;-72
2022/05/30 06:14:50;;;;;;;0.98;0.90;;;;;;;15.89;58.90;99066.28;5036309;28;20114;-71
2022/05/30 06:17:19;;;;;;;1.25;1.05;;;;;;;15.89;58.83;99076.59;5036043;28;20061;-71
2022/05/30 06:19:48;;;;;;;0.60;0.60;;;;;;;15.85;58.78;99087.03;5036229;28;20103;-72
2022/05/30 06:22:17;;;;;;;0.75;0.75;;;;;;;15.69;58.67;99078.94;5036032;28;20087;-71
2022/05/30 06:24:48;;;;;;;0.70;0.70;;;;;;;15.87;58.99;99091.25;5054139;28;20102;-70
2022/05/30 06:27:37;;;;;;;0.73;0.73;;;;;;;15.73;58.47;99097.72;5042832;28;20561;-70
2022/05/30 06:30:16;;;;;;;1.02;0.98;;;;;;;15.38;58.80;99091.00;5053364;28;20044;-70
2022/05/30 06:32:47;;;;;;;1.85;0.80;;;;;;;15.28;59.41;99080.16;5036305;28;20069;-71
2022/05/30 06:35:25;;;;;;;0.67;0.67;;;;;;;15.55;58.84;99082.84;5054136;28;20049;-69
2022/05/30 06:37:54;;;;;;;0.60;0.60;;;;;;;15.61;59.29;99088.63;5053593;28;20362;-70
2022/05/30 06:40:28;;;;;;;1.77;1.10;;;;;;;15.71;58.44;99084.91;5053807;28;20041;-71
2022/05/30 06:43:02;;;;;;;0.40;0.40;;;;;;;15.64;58.25;99096.28;5053811;28;20140;-70
2022/05/30 06:45:33;;;;;;;0.45;0.45;;;;;;;15.49;58.04;99093.31;5053905;28;20041;-70
2022/05/30 06:48:14;;;;;;;0.50;0.50;;;;;;;15.66;57.13;99107.34;5053935;28;20051;-70
2022/05/30 06:50:56;;;;;;;0.80;0.80;;;;;;;15.83;56.77;99099.97;5053480;28;20049;-71
2022/05/30 06:53:25;;;;;;;0.50;0.50;;;;;;;15.97;56.79;99102.94;5035826;28;20037;-71
2022/05/30 06:55:59;;;;;;;0.70;0.70;;;;;;;15.97;55.33;99097.78;5035699;28;20048;-70
2022/05/30 06:58:33;;;;;;;0.98;0.95;;;;;;;16.07;55.07;99094.03;5036017;28;20045;-71
2022/05/30 07:01:03;;;;;;;1.13;1.02;;;;;;;16.34;55.04;99092.25;5053438;28;20163;-68
2022/05/30 07:03:56;;;;;;;0.70;0.70;;;;;;;16.42;53.91;99100.59;5022589;28;20057;-70
2022/05/30 07:06:36;;;;;;;1.02;0.70;;;;;;;16.48;53.31;99094.41;5053340;28;20098;-71
2022/05/30 07:09:16;;;;;;;0.50;0.50;;;;;;;16.63;52.66;99105.03;5049978;28;20483;-70
2022/05/30 07:11:49;;;;;;;0.60;0.60;;;;;;;16.97;52.01;99102.13;5058673;28;20041;-71
2022/05/30 07:14:28;;;;;;;0.30;0.30;;;;;;;17.03;50.98;99098.50;5054895;28;20049;-71
2022/05/30 07:17:06;;;;;;;1.95;0.90;;;;;;;16.82;49.96;99100.06;5055461;28;20068;-70
2022/05/30 07:19:36;;;;;;;0.50;0.50;;;;;;;16.94;50.06;99091.09;5055566;28;20079;-71
2022/05/30 07:22:10;;;;;;;0.50;0.50;;;;;;;17.09;49.94;99101.69;5055561;28;20044;-71
2022/05/30 07:24:50;;;;;;;0.80;0.80;;;;;;;17.08;49.98;99112.91;5073079;28;20051;-71
2022/05/30 07:27:32;;;;;;;0.82;0.82;;;;;;;17.08;50.51;99102.59;5073624;28;20055;-70
2022/05/30 07:30:12;;;;;;;0.60;0.60;;;;;;;17.02;50.75;99107.94;5073110;28;20044;-70
2022/05/30 07:32:52;;;;;;;0.40;0.40;;;;;;;17.13;51.08;99102.41;5073300;28;20541;-69
2022/05/30 07:35:32;;;;;;;0.60;0.60;;;;;;;17.14;50.74;99099.78;5072989;28;20060;-70
2022/05/30 07:38:27;;;;;;;0.50;0.50;;;;;;;16.98;50.13;99102.97;5055883;28;20541;-69
2022/05/30 07:41:08;;;;;;;0.60;0.60;;;;;;;17.09;50.76;99099.09;5072893;28;20120;-70
2022/05/30 07:43:49;;;;;;;2.15;1.35;;;;;;;17.54;51.07;99101.72;5076561;28;20098;-72
2022/05/30 07:46:44;;;;;;;0.50;0.50;;;;;;;17.76;49.65;99081.09;5046118;28;20044;-69
2022/05/30 07:49:24;;;;;;;0.60;0.60;;;;;;;18.21;49.33;99102.50;5077202;28;20127;-70
2022/05/30 07:52:19;;;;;;;0.60;0.60;;;;;;;18.35;49.10;99113.13;5072945;28;20148;-70
2022/05/30 07:55:10;;;;;;;0.68;0.63;;;;;;;18.39;47.37;99106.06;5045833;28;20075;-70
2022/05/30 08:00:21;;;;;;;0.65;0.63;;;;;;;18.34;46.75;99105.41;5058711;28;20060;-71
2022/05/30 08:03:01;;;;;;;0.40;0.40;;;;;;;18.56;46.65;99109.69;5059129;28;20067;-71
2022/05/30 08:05:35;;;;;;;0.90;0.90;;;;;;;18.72;45.42;99110.69;5059208;28;20532;-71
2022/05/30 08:08:25;;;;;;;0.50;0.50;;;;;;;19.01;45.49;99114.59;5075601;28;20051;-69
2022/05/30 08:10:56;;;;;;;1.17;1.08;;;;;;;19.18;45.78;99117.28;5058718;28;20094;-71
2022/05/30 08:13:27;;;;;;;0.43;0.43;;;;;;;19.45;45.24;99109.22;5058375;28;20116;-70
2022/05/30 08:16:07;;;;;;;0.85;0.70;;;;;;;19.56;44.43;99112.13;5058814;28;20056;-70
2022/05/30 08:18:39;;;;;;;0.43;0.43;;;;;;;19.66;43.81;99114.25;5058983;28;20047;-69
2022/05/30 08:21:09;;;;;;;1.05;0.80;;;;;;;19.77;44.18;99111.97;5076262;28;20132;-70
2022/05/30 08:23:40;;;;;;;0.65;0.65;;;;;;;19.94;43.64;99114.63;5076112;28;20136;-70
2022/05/30 08:26:10;;;;;;;0.60;0.60;;;;;;;19.59;43.68;99124.94;5058565;28;20079;-71
2022/05/30 08:28:50;;;;;;;0.73;0.73;;;;;;;19.34;43.89;99122.59;5076126;28;20064;-71
2022/05/30 08:31:20;;;;;;;0.60;0.60;;;;;;;19.47;44.81;99122.91;5076038;28;20041;-69
2022/05/30 08:34:06;;;;;;;2.03;1.08;;;;;;;19.63;44.74;99122.16;5076051;28;20277;-71
2022/05/30 08:36:38;;;;;;;0.40;0.40;;;;;;;19.80;44.63;99129.97;5076604;28;20052;-70
2022/05/30 08:41:49;;;;;;;0.50;0.50;;;;;;;20.31;43.45;99128.41;5058059;28;20049;-70
2022/05/30 08:44:30;;;;;;;0.50;0.50;;;;;;;20.41;42.82;99125.31;5076429;28;20524;-70
2022/05/30 08:47:28;;;;;;;1.75;1.10;;;;;;;20.46;41.43;99128.53;5057974;28;20048;-71
2022/05/30 08:50:09;;;;;;;0.50;0.50;;;;;;;20.73;41.64;99134.09;5058158;28;20048;-71
2022/05/30 08:52:50;;;;;;;0.65;0.60;;;;;;;21.02;41.11;99128.22;5057756;28;20425;-71
2022/05/30 08:55:28;;;;;;;0.60;0.60;;;;;;;20.91;40.23;99135.72;5057894;28;20393;-71
2022/05/30 08:58:12;;;;;;;0.50;0.50;;;;;;;20.54;40.56;99125.53;5057787;28;20051;-70
2022/05/30 09:00:48;;;;;;;1.00;0.80;;;;;;;20.41;41.18;99129.66;5075916;28;20056;-70
2022/05/30 09:03:37;;;;;;;1.02;0.63;;;;;;;20.63;41.19;99125.09;5075418;28;20054;-71
2022/05/30 09:06:12;;;;;;;0.40;0.40;;;;;;;20.60;40.02;99120.88;5057645;28;20037;-70
2022/05/30 09:08:50;;;;;;;0.60;0.60;;;;;;;20.45;40.59;99128.56;5075374;28;20055;-70
2022/05/30 09:11:47;;;;;;;0.60;0.60;;;;;;;20.62;40.56;99139.81;5061626;28;20060;-71
2022/05/30 09:14:27;;;;;;;0.47;0.47;;;;;;;20.59;40.40;99133.91;5057906;28;20048;-68
2022/05/30 09:17:00;;;;;;;0.50;0.50;;;;;;;20.48;40.27;99126.69;5057616;28;20498;-70
2022/05/30 09:19:32;;;;;;;0.68;0.60;;;;;;;20.47;41.07;99126.75;5057563;28;20059;-70
2022/05/30 09:22:04;;;;;;;1.42;1.15;;;;;;;20.39;41.00;99124.56;5057272;28;20371;-70
2022/05/30 09:25:55;;;;;;;0.57;0.57;;;;;;;20.27;40.81;99126.91;5057563;28;20045;-71
2022/05/30 09:27:39;;;;;;;0.43;0.43;;;;;;;20.25;41.19;99114.00;5056980;28;20127;-71
2022/05/30 09:30:48;;;;;;;2.08;0.75;;;;;;;20.44;40.92;99113.97;5074878;28;20053;-71
2022/05/30 09:33:50;;;;;;;0.60;0.60;;;;;;;20.70;40.96;99116.06;5074801;28;20071;-70
2022/05/30 09:36:51;;;;;;;0.70;0.70;;;;;;;20.92;41.44;99129.63;5075215;28;20162;-70
2022/05/30 09:39:52;;;;;;;;;;;;;;;20.82;41.19;99136.19;4994326;28;20042;-70
2022/05/30 09:42:27;;;;;;;0.45;0.45;;;;;;;20.90;41.84;99141.81;4993582;28;20423;-71
2022/05/30 09:45:08;;;;;;;0.75;0.75;;;;;;;20.90;41.37;99134.03;4993834;28;20050;-71
2022/05/30 09:48:05;;;;;;;0.68;0.68;;;;;;;20.83;41.40;99142.25;4991108;28;20147;-69
2022/05/30 09:50:44;;;;;;;0.70;0.70;;;;;;;20.76;41.84;99144.28;4993904;28;20519;-70
2022/05/30 09:53:41;;;;;;;0.50;0.50;;;;;;;20.77;41.43;99148.56;4977244;28;20050;-71
2022/05/30 09:56:13;;;;;;;0.50;0.50;;;;;;;20.75;41.41;99150.41;4993094;28;20054;-71
2022/05/30 09:58:47;;;;;;;0.63;0.63;;;;;;;20.83;41.29;99148.25;4993608;28;20056;-71
2022/05/30 10:01:38;;;;;;;0.70;0.70;;;;;;;20.94;41.54;99151.16;4992955;28;20098;-70
2022/05/30 10:04:31;;;;;;;0.50;0.50;;;;;;;20.91;41.33;99151.28;4993040;28;20046;-71
2022/05/30 10:07:06;;;;;;;0.60;0.60;;;;;;;20.76;41.27;99157.25;4992561;28;20101;-71
2022/05/30 10:09:56;;;;;;;0.50;0.50;;;;;;;20.62;42.11;99160.53;4992928;28;20051;-70
2022/05/30 10:12:36;;;;;;;0.82;0.75;;;;;;;20.18;41.87;99158.44;4992808;28;20500;-70
2022/05/30 10:15:22;;;;;;;0.50;0.50;;;;;;;20.22;42.16;99154.75;4992795;28;20050;-69
2022/05/30 10:18:33;;;;;;;0.50;0.50;;;;;;;20.55;42.99;99155.72;5050513;28;20076;-71
2022/05/30 10:21:22;;;;;;;0.50;0.50;;;;;;;20.70;42.23;99139.41;5056441;28;20119;-70
2022/05/30 10:30:24;;;;;;;0.82;0.82;;;;;;;20.17;42.43;99141.19;5074075;28;20132;-70
2022/05/30 10:33:16;;;;;;;0.98;0.88;;;;;;;20.22;42.97;99139.22;5056393;28;20482;-69
2022/05/30 10:35:55;;;;;;;0.60;0.60;;;;;;;20.11;44.07;99141.50;5055951;28;20512;-69
2022/05/30 10:38:39;;;;;;;0.57;0.57;;;;;;;19.79;43.64;99146.44;5074082;28;20051;-69
2022/05/30 10:41:16;;;;;;;0.40;0.40;;;;;;;19.76;44.90;99146.59;5055806;28;20056;-70
2022/05/30 10:43:55;;;;;;;0.65;0.65;;;;;;;19.81;44.48;99147.22;5055983;28;20048;-69
2022/05/30 10:46:34;;;;;;;0.73;0.73;;;;;;;19.87;44.03;99141.72;5056209;28;20051;-69
2022/05/30 10:49:10;;;;;;;1.88;0.70;;;;;;;19.88;42.85;99140.81;5073540;28;20402;-70
2022/05/30 10:51:50;;;;;;;0.50;0.50;;;;;;;19.85;42.83;99129.75;5056041;28;20129;-70
2022/05/30 10:54:28;;;;;;;0.40;0.40;;;;;;;20.03;43.74;99139.25;5055910;28;20128;-70
2022/05/30 10:57:19;;;;;;;0.50;0.50;;;;;;;20.17;43.35;99126.47;5073827;28;20056;-69
2022/05/30 10:59:55;;;;;;;0.95;0.80;;;;;;;20.19;42.96;99134.16;5055807;28;20052;-69
2022/05/30 11:02:30;;;;;;;0.60;0.60;;;;;;;20.05;43.82;99143.47;5073448;28;20560;-70
2022/05/30 11:05:03;;;;;;;0.82;0.70;;;;;;;20.21;43.35;99142.69;5073359;28;20072;-69
2022/05/30 11:07:43;;;;;;;0.80;0.80;;;;;;;20.23;42.98;99146.13;5055906;28;20049;-70
2022/05/30 11:10:33;;;;;;;0.65;0.65;;;;;;;20.32;43.39;99143.91;5055605;28;20056;-70
2022/05/30 11:13:18;;;;;;;0.50;0.50;;;;;;;20.31;42.57;99128.41;5073409;28;20064;-69
2022/05/30 11:16:02;;;;;;;0.50;0.50;;;;;;;20.35;42.73;99140.31;5073581;28;20055;-70
2022/05/30 11:18:54;;;;;;;0.50;0.50;;;;;;;20.73;42.73;99142.69;5077748;28;20089;-70
2022/05/30 11:21:50;;;;;;;0.70;0.70;;;;;;;21.04;42.04;99146.31;5077309;28;20040;-69
2022/05/30 11:24:23;;;;;;;0.50;0.50;;;;;;;21.08;42.18;99143.50;5059481;28;20090;-70
2022/05/30 11:27:08;;;;;;;0.60;0.60;;;;;;;21.44;41.10;99135.53;5077660;28;20045;-71
2022/05/30 11:29:57;;;;;;;0.50;0.50;;;;;;;21.58;40.61;99143.44;5077564;28;20506;-70
2022/05/30 11:32:46;;;;;;;0.60;0.60;;;;;;;21.63;39.26;99138.81;5077214;28;20056;-70
2022/05/30 11:35:30;;;;;;;0.77;0.77;;;;;;;21.50;39.05;99144.78;5077080;28;20093;-70
2022/05/30 11:38:29;;;;;;;0.40;0.40;;;;;;;21.56;39.49;99149.63;5077463;28;20465;-69
2022/05/30 11:41:07;;;;;;;0.70;0.70;;;;;;;21.31;39.83;99140.53;5074988;28;20056;-70
2022/05/30 11:43:56;;;;;;;1.63;0.60;;;;;;;21.38;40.10;99140.22;5076871;28;20053;-71
2022/05/30 11:46:37;;;;;;;0.50;0.50;;;;;;;21.42;39.85;99139.97;5076952;28;20052;-70
2022/05/30 11:49:22;;;;;;;0.60;0.60;;;;;;;21.46;40.30;99138.03;5076836;28;20044;-71
2022/05/30 11:52:04;;;;;;;0.63;0.63;;;;;;;21.75;40.35;99129.53;5077164;28;20127;-68
2022/05/30 11:54:49;;;;;;;0.50;0.50;;;;;;;21.76;40.26;99131.22;5076714;28;20041;-69
2022/05/30 11:57:29;;;;;;;0.52;0.52;;;;;;;21.92;39.75;99126.88;5077161;28;20044;-70
2022/05/30 12:00:09;;;;;;;0.60;0.60;;;;;;;21.89;39.75;99127.03;5077235;28;20040;-70
2022/05/30 12:03:14;;;;;;;0.47;0.47;;;;;;;22.05;40.22;99132.22;5059264;28;20545;-70
2022/05/30 12:06:12;;;;;;;0.50;0.50;;;;;;;21.74;39.68;99133.06;5014776;28;20042;-71
2022/05/30 12:09:10;;;;;;;1.15;1.05;;;;;;;21.57;40.23;99133.13;5070491;28;20061;-70
2022/05/30 12:12:01;;;;;;;0.47;0.47;;;;;;;21.40;40.49;99128.84;5061011;28;20133;-68
2022/05/30 12:15:04;;;;;;;0.70;0.70;;;;;;;21.55;39.76;99129.75;5076492;28;20041;-71
2022/05/30 12:23:50;;;;;;;1.00;0.90;;;;;;;21.55;41.02;99129.75;5077073;28;20383;-69
2022/05/30 12:26:56;;;;;;;0.90;0.90;;;;;;;21.63;39.93;99125.00;5076467;28;20436;-70
2022/05/30 12:29:45;;;;;;;0.40;0.40;;;;;;;21.64;39.57;99122.34;5074257;28;20060;-70
2022/05/30 12:32:32;;;;;;;0.70;0.70;;;;;;;21.55;39.48;99124.56;5076148;28;20048;-70
2022/05/30 12:35:21;;;;;;;0.55;0.50;;;;;;;21.59;39.87;99107.91;5075933;28;20048;-71
2022/05/30 12:38:13;;;;;;;0.70;0.70;;;;;;;21.70;39.31;99123.72;5075916;28;20052;-70
2022/05/30 12:40:45;;;;;;;0.63;0.63;;;;;;;21.66;39.46;99119.63;5076191;28;20106;-72
2022/05/30 12:43:43;;;;;;;0.77;0.77;;;;;;;21.84;39.86;99123.81;5075883;28;20486;-71
2022/05/30 12:46:20;;;;;;;0.52;0.52;;;;;;;21.81;40.15;99111.81;5075726;28;20072;-69
2022/05/30 12:49:16;;;;;;;0.53;0.53;;;;;;;21.54;39.44;99128.94;5058229;28;20383;-69
2022/05/30 12:52:04;;;;;;;0.45;0.45;;;;;;;21.14;39.67;99138.00;5075705;28;20045;-70
2022/05/30 12:54:46;;;;;;;0.60;0.60;;;;;;;20.67;39.78;99124.84;5075616;28;20490;-70
2022/05/30 12:57:34;;;;;;;0.52;0.52;;;;;;;20.55;40.52;99125.47;5075656;28;20041;-70